Terminal Aerodrome Forecast (TAF)

TAF

Data at: 1705 UTC 20 Sep 2021

TAF for:NVSC (Sola/Vanua Lava Arpt, TO, NV) issued at 1600 UTC 20 Sep 2021
Text:TAF NVSC 201600Z 2018/2118 11010KT 9999 SCT020
Forecast period:1800 UTC 20 September 2021 to 1800 UTC 21 September 2021
Forecast type:FROM: standard forecast or significant change
Winds:from the ESE (110 degrees) at 12 MPH (10 knots; 5.1 m/s)
Visibility:6 or more sm (10+ km)
Ceiling:at least 12,000 feet AGL
Clouds: scattered clouds at 2000 feet AGL
Text:INTER 2018/2024 9000 -SHRA SCT018
Forecast period:1800 UTC 20 September 2021 to 0000 UTC 21 September 2021
Forecast type:TEMPORARY: The following changes expected for less than half the time period
Visibility: 6 sm ( 9 km)
Ceiling:at least 12,000 feet AGL
Clouds: scattered clouds at 1800 feet AGL
Weather:-SHRA (light rain showers)

TAF

Data at: 1705 UTC 20 Sep 2021

TAF for:NVSG (Longana Arpt, PA, NV) issued at 1600 UTC 20 Sep 2021
Text:TAF NVSG 201600Z 2018/2118 13008KT 9999 SCT020
Forecast period:1800 UTC 20 September 2021 to 1800 UTC 21 September 2021
Forecast type:FROM: standard forecast or significant change
Winds:from the SE (130 degrees) at 9 MPH (8 knots; 4.1 m/s)
Visibility:6 or more sm (10+ km)
Ceiling:at least 12,000 feet AGL
Clouds: scattered clouds at 2000 feet AGL
Text:INTER 2018/2024 9000 -SHRA SCT018
Forecast period:1800 UTC 20 September 2021 to 0000 UTC 21 September 2021
Forecast type:TEMPORARY: The following changes expected for less than half the time period
Visibility: 6 sm ( 9 km)
Ceiling:at least 12,000 feet AGL
Clouds: scattered clouds at 1800 feet AGL
Weather:-SHRA (light rain showers)

TAF

Data at: 1705 UTC 20 Sep 2021

TAF for:NVSS (Santo/Pekoa Intl, SA, NV) issued at 1600 UTC 20 Sep 2021
Text:TAF NVSS 201600Z 2018/2118 14008KT 9999 SCT020
Forecast period:1800 UTC 20 September 2021 to 1800 UTC 21 September 2021
Forecast type:FROM: standard forecast or significant change
Winds:from the SE (140 degrees) at 9 MPH (8 knots; 4.1 m/s)
Visibility:6 or more sm (10+ km)
Ceiling:at least 12,000 feet AGL
Clouds: scattered clouds at 2000 feet AGL
Text:INTER 2018/2024 9000 -SHRA SCT018
Forecast period:1800 UTC 20 September 2021 to 0000 UTC 21 September 2021
Forecast type:TEMPORARY: The following changes expected for less than half the time period
Visibility: 6 sm ( 9 km)
Ceiling:at least 12,000 feet AGL
Clouds: scattered clouds at 1800 feet AGL
Weather:-SHRA (light rain showers)

TAF

Data at: 1705 UTC 20 Sep 2021

TAF for:NVSL (Malekula Isl/Lamap, MA, NV) issued at 1600 UTC 20 Sep 2021
Text:TAF NVSL 201600Z 2018/2118 13006KT 9999 SCT020
Forecast period:1800 UTC 20 September 2021 to 1800 UTC 21 September 2021
Forecast type:FROM: standard forecast or significant change
Winds:from the SE (130 degrees) at 7 MPH (6 knots; 3.1 m/s)
Visibility:6 or more sm (10+ km)
Ceiling:at least 12,000 feet AGL
Clouds: scattered clouds at 2000 feet AGL
Text:INTER 2018/2024 9000 -SHRA SCT018
Forecast period:1800 UTC 20 September 2021 to 0000 UTC 21 September 2021
Forecast type:TEMPORARY: The following changes expected for less than half the time period
Visibility: 6 sm ( 9 km)
Ceiling:at least 12,000 feet AGL
Clouds: scattered clouds at 1800 feet AGL
Weather:-SHRA (light rain showers)

TAF

Data at: 1705 UTC 20 Sep 2021

TAF for:NVSP (Norsup Arpt, MA, NV) issued at 1600 UTC 20 Sep 2021
Text:TAF NVSP 201600Z 2018/2118 14006KT 9999 SCT020
Forecast period:1800 UTC 20 September 2021 to 1800 UTC 21 September 2021
Forecast type:FROM: standard forecast or significant change
Winds:from the SE (140 degrees) at 7 MPH (6 knots; 3.1 m/s)
Visibility:6 or more sm (10+ km)
Ceiling:at least 12,000 feet AGL
Clouds: scattered clouds at 2000 feet AGL
Text:INTER 2018/2024 9000 -SHRA SCT018
Forecast period:1800 UTC 20 September 2021 to 0000 UTC 21 September 2021
Forecast type:TEMPORARY: The following changes expected for less than half the time period
Visibility: 6 sm ( 9 km)
Ceiling:at least 12,000 feet AGL
Clouds: scattered clouds at 1800 feet AGL
Weather:-SHRA (light rain showers)

TAF

Data at: 1705 UTC 20 Sep 2021

TAF for:NVVV (Efate/Bauerfield Int, SE, NV) issued at 1600 UTC 20 Sep 2021
Text:TAF NVVV 201600Z 2018/2118 11006KT 9999 SCT020
Forecast period:1800 UTC 20 September 2021 to 1800 UTC 21 September 2021
Forecast type:FROM: standard forecast or significant change
Winds:from the ESE (110 degrees) at 7 MPH (6 knots; 3.1 m/s)
Visibility:6 or more sm (10+ km)
Ceiling:at least 12,000 feet AGL
Clouds: scattered clouds at 2000 feet AGL

TAF

Data at: 1705 UTC 20 Sep 2021

TAF for:NVVW (Tanna Arpt, TA, NV) issued at 1600 UTC 20 Sep 2021
Text:TAF NVVW 201600Z 2018/2118 11006KT 9999 SCT020
Forecast period:1800 UTC 20 September 2021 to 1800 UTC 21 September 2021
Forecast type:FROM: standard forecast or significant change
Winds:from the ESE (110 degrees) at 7 MPH (6 knots; 3.1 m/s)
Visibility:6 or more sm (10+ km)
Ceiling:at least 12,000 feet AGL
Clouds: scattered clouds at 2000 feet AGL

TAF

Data at: 1705 UTC 20 Sep 2021

TAF for:NVVA (Aneityum/Mystery Isl, TA, NV) issued at 1600 UTC 20 Sep 2021
Text:TAF NVVA 201600Z 2018/2118 09006KT 9999 SCT020
Forecast period:1800 UTC 20 September 2021 to 1800 UTC 21 September 2021
Forecast type:FROM: standard forecast or significant change
Winds:from the E (90 degrees) at 7 MPH (6 knots; 3.1 m/s)
Visibility:6 or more sm (10+ km)
Ceiling:at least 12,000 feet AGL
Clouds: scattered clouds at 2000 feet AGL

TAF

Data at: 1705 UTC 20 Sep 2021

TAF NVVV 201600Z 2018/2118 11006KT 9999 SCT020
TAF NVSC 201600Z 2018/2118 11010KT 9999 SCT020
  INTER 2018/2024 9000 -SHRA SCT018
TAF NVSG 201600Z 2018/2118 13008KT 9999 SCT020
  INTER 2018/2024 9000 -SHRA SCT018
TAF NVSS 201600Z 2018/2118 14008KT 9999 SCT020
  INTER 2018/2024 9000 -SHRA SCT018
TAF NVSL 201600Z 2018/2118 13006KT 9999 SCT020
  INTER 2018/2024 9000 -SHRA SCT018
TAF NVSP 201600Z 2018/2118 14006KT 9999 SCT020
  INTER 2018/2024 9000 -SHRA SCT018
TAF NVVW 201600Z 2018/2118 11006KT 9999 SCT020
TAF NVVA 201600Z 2018/2118 09006KT 9999 SCT020